sensor_id;sensor_type;location;lat;lon;timestamp;temperature;humidity
37868;DHT22;24011;48.880;9.190;2022-08-01T08:11:33;26.70;47.50
37868;DHT22;24011;48.880;9.190;2022-08-01T08:22:51;26.80;47.40
37868;DHT22;24011;48.880;9.190;2022-08-01T08:42:04;26.80;47.10
37868;DHT22;24011;48.880;9.190;2022-08-01T08:44:53;26.80;47.20
37868;DHT22;24011;48.880;9.190;2022-08-01T09:00:56;26.90;47.20
37868;DHT22;24011;48.880;9.190;2022-08-01T09:34:48;26.90;47.20
37868;DHT22;24011;48.880;9.190;2022-08-01T09:38:16;26.90;47.00
37868;DHT22;24011;48.880;9.190;2022-08-01T09:54:01;26.90;47.20
37868;DHT22;24011;48.880;9.190;2022-08-01T09:57:23;26.90;47.20
37868;DHT22;24011;48.880;9.190;2022-08-01T10:00:57;26.90;47.10
37868;DHT22;24011;48.880;9.190;2022-08-01T10:04:07;26.90;47.00
37868;DHT22;24011;48.880;9.190;2022-08-01T10:07:05;26.90;47.00
37868;DHT22;24011;48.880;9.190;2022-08-01T10:28:54;26.90;47.00
37868;DHT22;24011;48.880;9.190;2022-08-01T10:38:41;26.90;46.90
37868;DHT22;24011;48.880;9.190;2022-08-01T10:41:52;26.90;47.00
37868;DHT22;24011;48.880;9.190;2022-08-01T10:44:35;26.90;46.80
37868;DHT22;24011;48.880;9.190;2022-08-01T10:48:12;26.90;46.80
37868;DHT22;24011;48.880;9.190;2022-08-01T10:51:41;26.80;47.00
37868;DHT22;24011;48.880;9.190;2022-08-01T10:58:29;26.80;46.80
37868;DHT22;24011;48.880;9.190;2022-08-01T11:01:59;26.80;47.00
37868;DHT22;24011;48.880;9.190;2022-08-01T11:05:42;26.80;47.00
37868;DHT22;24011;48.880;9.190;2022-08-01T11:08:47;26.80;46.80
37868;DHT22;24011;48.880;9.190;2022-08-01T11:12:01;26.80;46.70
37868;DHT22;24011;48.880;9.190;2022-08-01T11:15:25;26.80;46.80
37868;DHT22;24011;48.880;9.190;2022-08-01T13:33:12;27.20;45.70
37868;DHT22;24011;48.880;9.190;2022-08-01T13:36:11;27.30;45.80
37868;DHT22;24011;48.880;9.190;2022-08-01T13:39:18;27.20;45.90
37868;DHT22;24011;48.880;9.190;2022-08-01T13:42:14;27.20;45.80
37868;DHT22;24011;48.880;9.190;2022-08-01T13:45:02;27.20;45.70
37868;DHT22;24011;48.880;9.190;2022-08-01T13:47:56;27.20;45.90
37868;DHT22;24011;48.880;9.190;2022-08-01T13:51:07;27.30;45.80
37868;DHT22;24011;48.880;9.190;2022-08-01T13:54:21;27.20;45.70
37868;DHT22;24011;48.880;9.190;2022-08-01T13:57:20;27.30;45.80
37868;DHT22;24011;48.880;9.190;2022-08-01T14:00:09;27.30;45.60
37868;DHT22;24011;48.880;9.190;2022-08-01T14:02:58;27.30;45.80
37868;DHT22;24011;48.880;9.190;2022-08-01T14:09:26;27.30;45.80
37868;DHT22;24011;48.880;9.190;2022-08-01T14:13:01;27.30;45.80
37868;DHT22;24011;48.880;9.190;2022-08-01T14:16:38;27.30;45.80
37868;DHT22;24011;48.880;9.190;2022-08-01T14:20:01;27.40;45.80
37868;DHT22;24011;48.880;9.190;2022-08-01T14:23:04;27.40;45.60
37868;DHT22;24011;48.880;9.190;2022-08-01T14:26:22;27.40;45.40
37868;DHT22;24011;48.880;9.190;2022-08-01T14:29:20;27.50;45.40
37868;DHT22;24011;48.880;9.190;2022-08-01T14:32:38;27.50;46.00
37868;DHT22;24011;48.880;9.190;2022-08-01T14:35:43;27.50;45.20
37868;DHT22;24011;48.880;9.190;2022-08-01T14:39:10;27.50;45.10
37868;DHT22;24011;48.880;9.190;2022-08-01T14:46:01;27.60;45.00
37868;DHT22;24011;48.880;9.190;2022-08-01T14:52:51;27.60;45.00
37868;DHT22;24011;48.880;9.190;2022-08-01T14:55:46;27.50;45.10
37868;DHT22;24011;48.880;9.190;2022-08-01T14:59:17;27.40;45.20
37868;DHT22;24011;48.880;9.190;2022-08-01T15:02:32;27.40;45.20
37868;DHT22;24011;48.880;9.190;2022-08-01T15:05:46;27.50;45.10
37868;DHT22;24011;48.880;9.190;2022-08-01T15:58:51;27.10;45.20
37868;DHT22;24011;48.880;9.190;2022-08-01T16:06:21;27.10;45.40
37868;DHT22;24011;48.880;9.190;2022-08-01T16:09:33;27.00;45.30
37868;DHT22;24011;48.880;9.190;2022-08-01T16:13:09;27.00;45.30
37868;DHT22;24011;48.880;9.190;2022-08-01T16:16:41;26.90;45.40
37868;DHT22;24011;48.880;9.190;2022-08-01T16:20:25;26.80;45.40
37868;DHT22;24011;48.880;9.190;2022-08-01T16:23:51;26.80;45.60
37868;DHT22;24011;48.880;9.190;2022-08-01T16:27:21;26.80;45.60
37868;DHT22;24011;48.880;9.190;2022-08-01T16:30:45;26.70;45.70
37868;DHT22;24011;48.880;9.190;2022-08-01T16:34:09;26.60;45.80
37868;DHT22;24011;48.880;9.190;2022-08-01T16:37:27;26.60;45.80
37868;DHT22;24011;48.880;9.190;2022-08-01T16:40:41;26.60;45.90
37868;DHT22;24011;48.880;9.190;2022-08-01T16:43:57;26.60;46.00
37868;DHT22;24011;48.880;9.190;2022-08-01T16:47:15;26.50;45.90
37868;DHT22;24011;48.880;9.190;2022-08-01T16:50:39;26.50;45.90
37868;DHT22;24011;48.880;9.190;2022-08-01T16:54:01;26.50;46.10
37868;DHT22;24011;48.880;9.190;2022-08-01T16:57:10;26.40;46.20
37868;DHT22;24011;48.880;9.190;2022-08-01T17:00:39;26.30;46.20
37868;DHT22;24011;48.880;9.190;2022-08-01T17:04:03;26.30;46.30
37868;DHT22;24011;48.880;9.190;2022-08-01T17:06:58;26.30;46.30
37868;DHT22;24011;48.880;9.190;2022-08-01T17:10:10;26.30;46.40
37868;DHT22;24011;48.880;9.190;2022-08-01T17:13:31;26.20;46.50
37868;DHT22;24011;48.880;9.190;2022-08-01T17:16:40;26.30;46.50
37868;DHT22;24011;48.880;9.190;2022-08-01T17:19:52;26.20;46.40
37868;DHT22;24011;48.880;9.190;2022-08-01T17:23:15;26.10;46.50
37868;DHT22;24011;48.880;9.190;2022-08-01T17:26:22;26.10;46.60
37868;DHT22;24011;48.880;9.190;2022-08-01T17:29:21;26.00;46.70
37868;DHT22;24011;48.880;9.190;2022-08-01T17:33:02;26.00;46.80
37868;DHT22;24011;48.880;9.190;2022-08-01T17:36:22;26.10;46.70
37868;DHT22;24011;48.880;9.190;2022-08-01T17:39:46;26.10;46.70
37868;DHT22;24011;48.880;9.190;2022-08-01T17:43:03;26.00;46.70
37868;DHT22;24011;48.880;9.190;2022-08-01T17:46:12;26.00;46.70
37868;DHT22;24011;48.880;9.190;2022-08-01T17:49:09;26.00;46.70
37868;DHT22;24011;48.880;9.190;2022-08-01T17:52:34;26.00;46.70
37868;DHT22;24011;48.880;9.190;2022-08-01T17:55:52;26.00;46.70
37868;DHT22;24011;48.880;9.190;2022-08-01T17:59:22;26.00;46.70
37868;DHT22;24011;48.880;9.190;2022-08-01T18:02:28;26.00;46.90
37868;DHT22;24011;48.880;9.190;2022-08-01T18:05:46;26.00;46.80
37868;DHT22;24011;48.880;9.190;2022-08-01T18:08:52;26.00;46.70
37868;DHT22;24011;48.880;9.190;2022-08-01T18:12:04;26.00;46.70
37868;DHT22;24011;48.880;9.190;2022-08-01T18:15:03;26.10;46.70
37868;DHT22;24011;48.880;9.190;2022-08-01T18:18:16;26.10;46.50
37868;DHT22;24011;48.880;9.190;2022-08-01T18:21:10;26.10;46.50
37868;DHT22;24011;48.880;9.190;2022-08-01T18:24:32;26.10;46.50
37868;DHT22;24011;48.880;9.190;2022-08-01T18:27:46;26.10;46.50
37868;DHT22;24011;48.880;9.190;2022-08-01T18:31:12;26.10;46.50
37868;DHT22;24011;48.880;9.190;2022-08-01T18:34:22;26.20;46.60
37868;DHT22;24011;48.880;9.190;2022-08-01T18:37:32;26.20;46.60
37868;DHT22;24011;48.880;9.190;2022-08-01T18:40:40;26.20;46.50
37868;DHT22;24011;48.880;9.190;2022-08-01T18:44:05;26.20;46.50
37868;DHT22;24011;48.880;9.190;2022-08-01T18:47:16;26.20;46.50
37868;DHT22;24011;48.880;9.190;2022-08-01T18:50:22;26.20;47.10
37868;DHT22;24011;48.880;9.190;2022-08-01T18:53:29;26.20;46.50
37868;DHT22;24011;48.880;9.190;2022-08-01T18:56:41;26.20;46.50
37868;DHT22;24011;48.880;9.190;2022-08-01T18:59:47;26.20;46.40
37868;DHT22;24011;48.880;9.190;2022-08-01T19:03:12;26.20;46.40
37868;DHT22;24011;48.880;9.190;2022-08-01T19:06:29;26.20;46.40
37868;DHT22;24011;48.880;9.190;2022-08-01T19:09:53;26.20;46.40
37868;DHT22;24011;48.880;9.190;2022-08-01T19:12:59;26.20;46.50
37868;DHT22;24011;48.880;9.190;2022-08-01T19:16:05;26.30;46.50
37868;DHT22;24011;48.880;9.190;2022-08-01T19:19:11;26.20;46.40
37868;DHT22;24011;48.880;9.190;2022-08-01T19:22:23;26.20;46.40
37868;DHT22;24011;48.880;9.190;2022-08-01T19:25:29;26.20;46.40
37868;DHT22;24011;48.880;9.190;2022-08-01T19:28:42;26.20;46.40
37868;DHT22;24011;48.880;9.190;2022-08-01T19:31:59;26.30;46.50
37868;DHT22;24011;48.880;9.190;2022-08-01T19:35:12;26.20;46.40
37868;DHT22;24011;48.880;9.190;2022-08-01T19:38:22;26.20;46.40
37868;DHT22;24011;48.880;9.190;2022-08-01T19:41:42;26.30;46.40
37868;DHT22;24011;48.880;9.190;2022-08-01T19:44:52;26.30;46.40
37868;DHT22;24011;48.880;9.190;2022-08-01T19:48:11;26.20;46.40
37868;DHT22;24011;48.880;9.190;2022-08-01T19:51:43;26.20;46.40
37868;DHT22;24011;48.880;9.190;2022-08-01T19:55:04;26.20;46.40
37868;DHT22;24011;48.880;9.190;2022-08-01T19:58:17;26.30;46.50
37868;DHT22;24011;48.880;9.190;2022-08-01T20:01:22;26.30;46.40
37868;DHT22;24011;48.880;9.190;2022-08-01T20:07:39;26.30;46.40
37868;DHT22;24011;48.880;9.190;2022-08-01T20:10:52;26.30;46.40
37868;DHT22;24011;48.880;9.190;2022-08-01T20:14:17;26.30;46.50
37868;DHT22;24011;48.880;9.190;2022-08-01T20:17:40;26.30;46.50
37868;DHT22;24011;48.880;9.190;2022-08-01T20:21:12;26.20;46.40
37868;DHT22;24011;48.880;9.190;2022-08-01T21:35:19;26.20;46.50
37868;DHT22;24011;48.880;9.190;2022-08-01T21:38:52;26.20;46.50
37868;DHT22;24011;48.880;9.190;2022-08-01T21:42:10;26.30;46.60
37868;DHT22;24011;48.880;9.190;2022-08-01T21:45:34;26.20;46.50
37868;DHT22;24011;48.880;9.190;2022-08-01T21:48:55;26.20;46.50
37868;DHT22;24011;48.880;9.190;2022-08-01T21:52:37;26.20;46.60
37868;DHT22;24011;48.880;9.190;2022-08-01T21:56:10;26.20;46.50
37868;DHT22;24011;48.880;9.190;2022-08-01T21:59:41;26.20;46.60
37868;DHT22;24011;48.880;9.190;2022-08-01T22:03:09;26.20;46.60
37868;DHT22;24011;48.880;9.190;2022-08-01T22:06:37;26.20;46.60
37868;DHT22;24011;48.880;9.190;2022-08-01T22:09:52;26.20;46.60
37868;DHT22;24011;48.880;9.190;2022-08-01T22:13:16;26.20;46.60
37868;DHT22;24011;48.880;9.190;2022-08-01T22:16:40;26.20;46.60
37868;DHT22;24011;48.880;9.190;2022-08-01T22:20:01;26.20;46.60
37868;DHT22;24011;48.880;9.190;2022-08-01T22:23:28;26.20;46.60
37868;DHT22;24011;48.880;9.190;2022-08-01T22:26:54;26.20;46.60
37868;DHT22;24011;48.880;9.190;2022-08-01T22:30:37;26.20;46.60
37868;DHT22;24011;48.880;9.190;2022-08-01T22:34:07;26.20;46.60
37868;DHT22;24011;48.880;9.190;2022-08-01T22:37:22;26.20;46.60
37868;DHT22;24011;48.880;9.190;2022-08-01T22:40:47;26.20;46.60
37868;DHT22;24011;48.880;9.190;2022-08-01T22:44:11;26.20;46.60
37868;DHT22;24011;48.880;9.190;2022-08-01T22:47:35;26.20;46.60
37868;DHT22;24011;48.880;9.190;2022-08-01T22:51:00;26.20;46.60
37868;DHT22;24011;48.880;9.190;2022-08-01T22:54:38;26.10;46.50
37868;DHT22;24011;48.880;9.190;2022-08-01T22:57:47;26.20;46.60
37868;DHT22;24011;48.880;9.190;2022-08-01T23:01:11;26.10;46.50
37868;DHT22;24011;48.880;9.190;2022-08-01T23:04:24;26.10;46.60
37868;DHT22;24011;48.880;9.190;2022-08-01T23:07:37;26.20;47.30
37868;DHT22;24011;48.880;9.190;2022-08-01T23:10:59;26.10;46.60
37868;DHT22;24011;48.880;9.190;2022-08-01T23:14:11;26.10;46.60
37868;DHT22;24011;48.880;9.190;2022-08-01T23:17:20;26.10;46.60
37868;DHT22;24011;48.880;9.190;2022-08-01T23:20:41;26.20;46.70
37868;DHT22;24011;48.880;9.190;2022-08-01T23:23:41;26.10;46.60
37868;DHT22;24011;48.880;9.190;2022-08-01T23:27:08;26.10;46.60
37868;DHT22;24011;48.880;9.190;2022-08-01T23:30:35;26.10;46.60
37868;DHT22;24011;48.880;9.190;2022-08-01T23:33:50;26.10;46.70
37868;DHT22;24011;48.880;9.190;2022-08-01T23:36:58;26.10;46.60
37868;DHT22;24011;48.880;9.190;2022-08-01T23:40:08;26.10;46.70
37868;DHT22;24011;48.880;9.190;2022-08-01T23:43:21;26.10;46.70
37868;DHT22;24011;48.880;9.190;2022-08-01T23:46:44;26.10;46.70
37868;DHT22;24011;48.880;9.190;2022-08-01T23:50:02;26.10;46.70
37868;DHT22;24011;48.880;9.190;2022-08-01T23:53:26;26.10;46.70
37868;DHT22;24011;48.880;9.190;2022-08-01T23:56:39;26.10;46.70
37868;DHT22;24011;48.880;9.190;2022-08-01T23:59:56;26.10;46.70
